sensor_id;sensor_type;location;lat;lon;timestamp;temperature;humidity
25983;DHT22;13773;48.868;10.730;2024-02-15T00:01:41;8.40;99.90
25983;DHT22;13773;48.868;10.730;2024-02-15T00:04:07;8.40;99.90
25983;DHT22;13773;48.868;10.730;2024-02-15T00:06:33;8.40;99.90
25983;DHT22;13773;48.868;10.730;2024-02-15T00:08:59;8.40;99.90
25983;DHT22;13773;48.868;10.730;2024-02-15T00:11:24;8.40;99.90
25983;DHT22;13773;48.868;10.730;2024-02-15T00:13:50;8.40;99.90
25983;DHT22;13773;48.868;10.730;2024-02-15T00:16:16;8.40;99.90
25983;DHT22;13773;48.868;10.730;2024-02-15T00:18:42;8.50;99.90
25983;DHT22;13773;48.868;10.730;2024-02-15T00:21:07;8.50;99.90
25983;DHT22;13773;48.868;10.730;2024-02-15T00:23:33;8.50;99.90
25983;DHT22;13773;48.868;10.730;2024-02-15T00:25:59;8.50;99.90
25983;DHT22;13773;48.868;10.730;2024-02-15T00:28:24;8.50;99.90
25983;DHT22;13773;48.868;10.730;2024-02-15T00:30:52;8.60;99.90
25983;DHT22;13773;48.868;10.730;2024-02-15T00:33:18;8.50;99.90
25983;DHT22;13773;48.868;10.730;2024-02-15T00:35:44;8.60;99.90
25983;DHT22;13773;48.868;10.730;2024-02-15T00:38:09;8.60;99.90
25983;DHT22;13773;48.868;10.730;2024-02-15T00:40:36;8.60;99.90
25983;DHT22;13773;48.868;10.730;2024-02-15T00:43:01;8.60;99.90
25983;DHT22;13773;48.868;10.730;2024-02-15T00:45:27;8.60;99.90
25983;DHT22;13773;48.868;10.730;2024-02-15T00:47:53;8.60;99.90
25983;DHT22;13773;48.868;10.730;2024-02-15T00:50:19;8.60;99.90
25983;DHT22;13773;48.868;10.730;2024-02-15T00:52:45;8.60;99.90
25983;DHT22;13773;48.868;10.730;2024-02-15T00:55:11;8.60;99.90
25983;DHT22;13773;48.868;10.730;2024-02-15T00:57:37;8.60;99.90
25983;DHT22;13773;48.868;10.730;2024-02-15T01:00:04;8.60;99.90
25983;DHT22;13773;48.868;10.730;2024-02-15T01:02:31;8.70;99.90
25983;DHT22;13773;48.868;10.730;2024-02-15T01:04:57;8.70;99.90
25983;DHT22;13773;48.868;10.730;2024-02-15T01:07:23;8.70;99.90
25983;DHT22;13773;48.868;10.730;2024-02-15T01:09:51;8.60;99.90
25983;DHT22;13773;48.868;10.730;2024-02-15T01:12:17;8.60;99.90
25983;DHT22;13773;48.868;10.730;2024-02-15T01:14:43;8.50;99.90
25983;DHT22;13773;48.868;10.730;2024-02-15T01:17:09;8.50;99.90
25983;DHT22;13773;48.868;10.730;2024-02-15T01:19:34;8.50;99.90
25983;DHT22;13773;48.868;10.730;2024-02-15T01:22:00;8.50;99.90
25983;DHT22;13773;48.868;10.730;2024-02-15T01:24:26;8.50;99.90
25983;DHT22;13773;48.868;10.730;2024-02-15T01:26:52;8.50;99.90
25983;DHT22;13773;48.868;10.730;2024-02-15T01:29:18;8.50;99.90
25983;DHT22;13773;48.868;10.730;2024-02-15T01:31:44;8.50;99.90
25983;DHT22;13773;48.868;10.730;2024-02-15T01:34:10;8.50;99.90
25983;DHT22;13773;48.868;10.730;2024-02-15T01:36:36;8.50;99.90
25983;DHT22;13773;48.868;10.730;2024-02-15T01:39:01;8.50;99.90
25983;DHT22;13773;48.868;10.730;2024-02-15T01:41:27;8.50;99.90
25983;DHT22;13773;48.868;10.730;2024-02-15T01:43:53;8.50;99.90
25983;DHT22;13773;48.868;10.730;2024-02-15T01:46:19;8.60;99.90
25983;DHT22;13773;48.868;10.730;2024-02-15T01:48:46;8.50;99.90
25983;DHT22;13773;48.868;10.730;2024-02-15T01:51:12;8.50;99.90
25983;DHT22;13773;48.868;10.730;2024-02-15T01:53:42;8.60;99.90
25983;DHT22;13773;48.868;10.730;2024-02-15T01:56:08;8.60;99.90
25983;DHT22;13773;48.868;10.730;2024-02-15T01:58:34;8.60;99.90
25983;DHT22;13773;48.868;10.730;2024-02-15T02:01:01;8.60;99.90
25983;DHT22;13773;48.868;10.730;2024-02-15T02:03:27;8.60;99.90
25983;DHT22;13773;48.868;10.730;2024-02-15T02:05:53;8.50;99.90
25983;DHT22;13773;48.868;10.730;2024-02-15T02:08:19;8.40;99.90
25983;DHT22;13773;48.868;10.730;2024-02-15T02:10:45;8.50;99.90
25983;DHT22;13773;48.868;10.730;2024-02-15T02:13:11;8.50;99.90
25983;DHT22;13773;48.868;10.730;2024-02-15T02:15:37;8.50;99.90
25983;DHT22;13773;48.868;10.730;2024-02-15T02:18:04;8.50;99.90
25983;DHT22;13773;48.868;10.730;2024-02-15T02:20:34;8.40;99.90
25983;DHT22;13773;48.868;10.730;2024-02-15T02:23:21;8.30;99.90
25983;DHT22;13773;48.868;10.730;2024-02-15T02:25:48;8.40;99.90
25983;DHT22;13773;48.868;10.730;2024-02-15T02:28:15;8.40;99.90
25983;DHT22;13773;48.868;10.730;2024-02-15T02:30:42;8.40;99.90
25983;DHT22;13773;48.868;10.730;2024-02-15T02:33:14;8.30;99.90
25983;DHT22;13773;48.868;10.730;2024-02-15T02:35:48;8.40;99.90
25983;DHT22;13773;48.868;10.730;2024-02-15T02:38:14;8.40;99.90
25983;DHT22;13773;48.868;10.730;2024-02-15T02:40:40;8.30;99.90
25983;DHT22;13773;48.868;10.730;2024-02-15T02:43:07;8.30;99.90
25983;DHT22;13773;48.868;10.730;2024-02-15T02:45:33;8.30;99.90
25983;DHT22;13773;48.868;10.730;2024-02-15T02:47:58;8.30;99.90
25983;DHT22;13773;48.868;10.730;2024-02-15T02:50:24;8.20;99.90
25983;DHT22;13773;48.868;10.730;2024-02-15T02:52:50;8.20;99.90
25983;DHT22;13773;48.868;10.730;2024-02-15T02:55:16;8.20;99.90
25983;DHT22;13773;48.868;10.730;2024-02-15T02:57:43;8.10;99.90
25983;DHT22;13773;48.868;10.730;2024-02-15T03:00:12;8.10;99.90
25983;DHT22;13773;48.868;10.730;2024-02-15T03:02:40;8.10;99.90
25983;DHT22;13773;48.868;10.730;2024-02-15T03:05:07;8.00;99.90
25983;DHT22;13773;48.868;10.730;2024-02-15T03:07:34;7.90;99.90
25983;DHT22;13773;48.868;10.730;2024-02-15T03:10:04;7.90;99.90
25983;DHT22;13773;48.868;10.730;2024-02-15T03:12:33;7.90;99.90
25983;DHT22;13773;48.868;10.730;2024-02-15T03:15:01;7.90;99.90
25983;DHT22;13773;48.868;10.730;2024-02-15T03:17:27;8.00;99.90
25983;DHT22;13773;48.868;10.730;2024-02-15T03:19:53;8.00;99.90
25983;DHT22;13773;48.868;10.730;2024-02-15T03:22:18;8.00;99.90
25983;DHT22;13773;48.868;10.730;2024-02-15T03:24:44;8.00;99.90
25983;DHT22;13773;48.868;10.730;2024-02-15T03:27:09;8.00;99.90
25983;DHT22;13773;48.868;10.730;2024-02-15T03:29:38;8.00;99.90
25983;DHT22;13773;48.868;10.730;2024-02-15T03:32:04;8.10;99.90
25983;DHT22;13773;48.868;10.730;2024-02-15T03:34:30;8.10;99.90
25983;DHT22;13773;48.868;10.730;2024-02-15T03:36:57;8.10;99.90
25983;DHT22;13773;48.868;10.730;2024-02-15T03:39:23;8.10;99.90
25983;DHT22;13773;48.868;10.730;2024-02-15T03:41:49;8.20;99.90
25983;DHT22;13773;48.868;10.730;2024-02-15T03:44:16;8.20;99.90
25983;DHT22;13773;48.868;10.730;2024-02-15T03:46:44;8.30;99.90
25983;DHT22;13773;48.868;10.730;2024-02-15T03:49:16;8.30;99.90
25983;DHT22;13773;48.868;10.730;2024-02-15T03:51:42;8.30;99.90
25983;DHT22;13773;48.868;10.730;2024-02-15T03:54:08;8.40;99.90
25983;DHT22;13773;48.868;10.730;2024-02-15T03:56:34;8.40;99.90
25983;DHT22;13773;48.868;10.730;2024-02-15T03:59:03;8.40;99.90
25983;DHT22;13773;48.868;10.730;2024-02-15T04:01:30;8.50;99.90
25983;DHT22;13773;48.868;10.730;2024-02-15T04:03:59;8.50;99.90
25983;DHT22;13773;48.868;10.730;2024-02-15T04:06:25;8.50;99.90
25983;DHT22;13773;48.868;10.730;2024-02-15T04:08:53;8.50;99.90
25983;DHT22;13773;48.868;10.730;2024-02-15T04:11:19;8.50;99.90
25983;DHT22;13773;48.868;10.730;2024-02-15T04:13:45;8.40;99.90
25983;DHT22;13773;48.868;10.730;2024-02-15T04:16:11;8.40;99.90
25983;DHT22;13773;48.868;10.730;2024-02-15T04:18:36;8.30;99.90
25983;DHT22;13773;48.868;10.730;2024-02-15T04:21:04;8.20;99.90
25983;DHT22;13773;48.868;10.730;2024-02-15T04:23:32;8.10;99.90
25983;DHT22;13773;48.868;10.730;2024-02-15T04:25:58;7.90;99.90
25983;DHT22;13773;48.868;10.730;2024-02-15T04:28:25;7.70;99.90
25983;DHT22;13773;48.868;10.730;2024-02-15T04:30:51;7.50;99.90
25983;DHT22;13773;48.868;10.730;2024-02-15T04:33:16;7.30;99.90
25983;DHT22;13773;48.868;10.730;2024-02-15T04:35:42;7.20;99.90
25983;DHT22;13773;48.868;10.730;2024-02-15T04:38:09;7.00;99.90
25983;DHT22;13773;48.868;10.730;2024-02-15T04:40:35;7.00;99.90
25983;DHT22;13773;48.868;10.730;2024-02-15T04:43:02;7.00;99.90
25983;DHT22;13773;48.868;10.730;2024-02-15T04:45:30;6.90;99.90
25983;DHT22;13773;48.868;10.730;2024-02-15T04:47:56;6.80;99.90
25983;DHT22;13773;48.868;10.730;2024-02-15T04:50:22;6.80;99.90
25983;DHT22;13773;48.868;10.730;2024-02-15T04:52:48;6.70;99.90
25983;DHT22;13773;48.868;10.730;2024-02-15T04:55:15;6.50;99.90
25983;DHT22;13773;48.868;10.730;2024-02-15T04:57:41;6.50;99.90
25983;DHT22;13773;48.868;10.730;2024-02-15T05:00:07;6.40;99.90
25983;DHT22;13773;48.868;10.730;2024-02-15T05:02:38;6.30;99.90
25983;DHT22;13773;48.868;10.730;2024-02-15T05:05:11;6.20;99.90
25983;DHT22;13773;48.868;10.730;2024-02-15T05:07:38;6.10;99.90
25983;DHT22;13773;48.868;10.730;2024-02-15T05:10:05;6.20;99.90
25983;DHT22;13773;48.868;10.730;2024-02-15T05:12:33;6.20;99.90
25983;DHT22;13773;48.868;10.730;2024-02-15T05:14:59;6.10;99.90
25983;DHT22;13773;48.868;10.730;2024-02-15T05:17:25;6.10;99.90
25983;DHT22;13773;48.868;10.730;2024-02-15T05:19:50;6.10;99.90
25983;DHT22;13773;48.868;10.730;2024-02-15T05:22:16;6.10;99.90
25983;DHT22;13773;48.868;10.730;2024-02-15T05:24:43;6.10;99.90
25983;DHT22;13773;48.868;10.730;2024-02-15T05:27:09;6.20;99.90
25983;DHT22;13773;48.868;10.730;2024-02-15T05:29:35;6.10;99.90
25983;DHT22;13773;48.868;10.730;2024-02-15T05:32:01;6.10;99.90
25983;DHT22;13773;48.868;10.730;2024-02-15T05:34:27;6.10;99.90
25983;DHT22;13773;48.868;10.730;2024-02-15T05:36:55;6.10;99.90
25983;DHT22;13773;48.868;10.730;2024-02-15T05:39:21;6.10;99.90
25983;DHT22;13773;48.868;10.730;2024-02-15T05:41:47;6.10;99.90
25983;DHT22;13773;48.868;10.730;2024-02-15T05:44:13;6.00;99.90
25983;DHT22;13773;48.868;10.730;2024-02-15T05:46:46;6.00;99.90
25983;DHT22;13773;48.868;10.730;2024-02-15T05:49:12;6.10;99.90
25983;DHT22;13773;48.868;10.730;2024-02-15T05:51:43;6.10;99.90
25983;DHT22;13773;48.868;10.730;2024-02-15T05:54:09;6.20;99.90
25983;DHT22;13773;48.868;10.730;2024-02-15T05:56:34;6.20;99.90
25983;DHT22;13773;48.868;10.730;2024-02-15T05:59:00;6.50;99.90
25983;DHT22;13773;48.868;10.730;2024-02-15T06:01:28;6.20;99.90
25983;DHT22;13773;48.868;10.730;2024-02-15T06:03:55;6.20;99.90
25983;DHT22;13773;48.868;10.730;2024-02-15T06:06:21;6.20;99.90
25983;DHT22;13773;48.868;10.730;2024-02-15T06:08:47;6.30;99.90
25983;DHT22;13773;48.868;10.730;2024-02-15T06:11:19;6.30;99.90
25983;DHT22;13773;48.868;10.730;2024-02-15T06:13:46;6.40;99.90
25983;DHT22;13773;48.868;10.730;2024-02-15T06:16:11;6.50;99.90
25983;DHT22;13773;48.868;10.730;2024-02-15T06:18:37;6.60;99.90
25983;DHT22;13773;48.868;10.730;2024-02-15T06:21:03;6.60;99.90
25983;DHT22;13773;48.868;10.730;2024-02-15T06:23:29;6.60;99.90
25983;DHT22;13773;48.868;10.730;2024-02-15T06:25:56;6.60;99.90
25983;DHT22;13773;48.868;10.730;2024-02-15T06:28:22;6.60;99.90
25983;DHT22;13773;48.868;10.730;2024-02-15T06:31:07;6.60;99.90
25983;DHT22;13773;48.868;10.730;2024-02-15T06:33:53;6.70;99.90
25983;DHT22;13773;48.868;10.730;2024-02-15T06:36:48;6.60;99.90
25983;DHT22;13773;48.868;10.730;2024-02-15T06:39:33;6.60;99.90
25983;DHT22;13773;48.868;10.730;2024-02-15T06:42:09;6.70;99.90
25983;DHT22;13773;48.868;10.730;2024-02-15T06:44:37;6.60;99.90
25983;DHT22;13773;48.868;10.730;2024-02-15T06:47:04;6.60;99.90
25983;DHT22;13773;48.868;10.730;2024-02-15T06:49:29;6.70;99.90
25983;DHT22;13773;48.868;10.730;2024-02-15T06:51:55;6.70;99.90
25983;DHT22;13773;48.868;10.730;2024-02-15T06:54:21;6.70;99.90
25983;DHT22;13773;48.868;10.730;2024-02-15T06:56:48;6.70;99.90
25983;DHT22;13773;48.868;10.730;2024-02-15T06:59:14;6.80;99.90
25983;DHT22;13773;48.868;10.730;2024-02-15T07:01:42;6.80;99.90
25983;DHT22;13773;48.868;10.730;2024-02-15T07:04:09;6.80;99.90
25983;DHT22;13773;48.868;10.730;2024-02-15T07:06:38;6.80;99.90
25983;DHT22;13773;48.868;10.730;2024-02-15T07:09:07;6.90;99.90
25983;DHT22;13773;48.868;10.730;2024-02-15T07:11:33;6.90;99.90
25983;DHT22;13773;48.868;10.730;2024-02-15T07:14:02;7.00;99.90
25983;DHT22;13773;48.868;10.730;2024-02-15T07:16:27;7.00;99.90
25983;DHT22;13773;48.868;10.730;2024-02-15T07:18:53;7.00;99.90
25983;DHT22;13773;48.868;10.730;2024-02-15T07:21:22;7.10;99.90
25983;DHT22;13773;48.868;10.730;2024-02-15T07:23:53;7.10;99.90
25983;DHT22;13773;48.868;10.730;2024-02-15T07:26:20;7.10;99.90
25983;DHT22;13773;48.868;10.730;2024-02-15T07:28:48;7.10;99.90
25983;DHT22;13773;48.868;10.730;2024-02-15T07:31:15;7.20;99.90
25983;DHT22;13773;48.868;10.730;2024-02-15T07:33:41;7.30;99.90
25983;DHT22;13773;48.868;10.730;2024-02-15T07:36:08;7.50;99.90
25983;DHT22;13773;48.868;10.730;2024-02-15T07:38:34;7.60;99.90
25983;DHT22;13773;48.868;10.730;2024-02-15T07:41:00;7.60;99.90
25983;DHT22;13773;48.868;10.730;2024-02-15T07:43:26;7.70;99.90
25983;DHT22;13773;48.868;10.730;2024-02-15T07:45:52;7.80;99.90
25983;DHT22;13773;48.868;10.730;2024-02-15T07:48:17;7.90;99.90
25983;DHT22;13773;48.868;10.730;2024-02-15T07:50:43;7.90;99.90
25983;DHT22;13773;48.868;10.730;2024-02-15T07:53:10;8.00;99.90
25983;DHT22;13773;48.868;10.730;2024-02-15T07:55:37;8.10;99.90
25983;DHT22;13773;48.868;10.730;2024-02-15T07:58:03;8.10;99.90
25983;DHT22;13773;48.868;10.730;2024-02-15T08:00:30;8.30;99.90
25983;DHT22;13773;48.868;10.730;2024-02-15T08:02:56;8.30;99.90
25983;DHT22;13773;48.868;10.730;2024-02-15T08:05:23;8.40;99.90
25983;DHT22;13773;48.868;10.730;2024-02-15T08:07:48;8.40;99.90
25983;DHT22;13773;48.868;10.730;2024-02-15T08:10:15;8.40;99.90
25983;DHT22;13773;48.868;10.730;2024-02-15T08:12:44;8.50;99.90
25983;DHT22;13773;48.868;10.730;2024-02-15T08:15:11;8.60;99.90
25983;DHT22;13773;48.868;10.730;2024-02-15T08:17:44;8.60;99.90
25983;DHT22;13773;48.868;10.730;2024-02-15T08:20:12;8.70;99.90
25983;DHT22;13773;48.868;10.730;2024-02-15T08:22:38;8.80;99.90
25983;DHT22;13773;48.868;10.730;2024-02-15T08:25:09;9.00;99.90
25983;DHT22;13773;48.868;10.730;2024-02-15T08:27:37;9.10;99.90
25983;DHT22;13773;48.868;10.730;2024-02-15T08:30:07;8.50;99.90
25983;DHT22;13773;48.868;10.730;2024-02-15T08:32:35;9.20;99.90
25983;DHT22;13773;48.868;10.730;2024-02-15T08:35:00;9.20;99.90
25983;DHT22;13773;48.868;10.730;2024-02-15T08:37:26;9.20;99.90
25983;DHT22;13773;48.868;10.730;2024-02-15T08:39:51;9.20;99.90
25983;DHT22;13773;48.868;10.730;2024-02-15T08:42:18;9.40;99.90
25983;DHT22;13773;48.868;10.730;2024-02-15T08:44:48;9.50;99.90
25983;DHT22;13773;48.868;10.730;2024-02-15T08:47:14;9.70;99.90
25983;DHT22;13773;48.868;10.730;2024-02-15T08:49:40;9.80;99.90
25983;DHT22;13773;48.868;10.730;2024-02-15T08:52:06;9.90;99.90
25983;DHT22;13773;48.868;10.730;2024-02-15T08:54:36;10.00;99.90
25983;DHT22;13773;48.868;10.730;2024-02-15T08:57:05;10.10;99.90
25983;DHT22;13773;48.868;10.730;2024-02-15T08:59:31;10.20;99.90
25983;DHT22;13773;48.868;10.730;2024-02-15T09:01:57;10.40;99.90
25983;DHT22;13773;48.868;10.730;2024-02-15T09:04:23;10.50;99.90
25983;DHT22;13773;48.868;10.730;2024-02-15T09:06:50;10.50;99.90
25983;DHT22;13773;48.868;10.730;2024-02-15T09:09:16;10.50;99.90
25983;DHT22;13773;48.868;10.730;2024-02-15T09:11:42;10.50;99.90
25983;DHT22;13773;48.868;10.730;2024-02-15T09:14:08;10.50;99.90
25983;DHT22;13773;48.868;10.730;2024-02-15T09:16:38;10.40;99.90
25983;DHT22;13773;48.868;10.730;2024-02-15T09:19:05;10.30;99.90
25983;DHT22;13773;48.868;10.730;2024-02-15T09:21:31;10.40;99.90
25983;DHT22;13773;48.868;10.730;2024-02-15T09:23:59;10.40;99.90
25983;DHT22;13773;48.868;10.730;2024-02-15T09:26:25;10.50;99.90
25983;DHT22;13773;48.868;10.730;2024-02-15T09:28:51;10.50;99.90
25983;DHT22;13773;48.868;10.730;2024-02-15T09:31:19;10.60;99.90
25983;DHT22;13773;48.868;10.730;2024-02-15T09:33:44;10.70;99.90
25983;DHT22;13773;48.868;10.730;2024-02-15T09:36:11;10.70;99.90
25983;DHT22;13773;48.868;10.730;2024-02-15T09:38:37;10.80;99.90
25983;DHT22;13773;48.868;10.730;2024-02-15T09:41:03;11.00;99.90
25983;DHT22;13773;48.868;10.730;2024-02-15T09:43:34;11.10;99.90
25983;DHT22;13773;48.868;10.730;2024-02-15T09:46:00;11.10;99.90
25983;DHT22;13773;48.868;10.730;2024-02-15T09:48:29;11.20;99.90
25983;DHT22;13773;48.868;10.730;2024-02-15T09:50:57;11.30;99.90
25983;DHT22;13773;48.868;10.730;2024-02-15T09:53:24;11.30;99.90
25983;DHT22;13773;48.868;10.730;2024-02-15T09:55:56;11.40;99.90
25983;DHT22;13773;48.868;10.730;2024-02-15T09:58:30;11.40;99.90
25983;DHT22;13773;48.868;10.730;2024-02-15T10:01:00;11.40;99.90
25983;DHT22;13773;48.868;10.730;2024-02-15T10:03:29;11.50;99.90
25983;DHT22;13773;48.868;10.730;2024-02-15T10:05:56;13.00;99.90
25983;DHT22;13773;48.868;10.730;2024-02-15T10:08:23;11.60;99.90
25983;DHT22;13773;48.868;10.730;2024-02-15T10:11:05;11.70;99.90
25983;DHT22;13773;48.868;10.730;2024-02-15T10:13:32;11.80;99.90
25983;DHT22;13773;48.868;10.730;2024-02-15T10:15:58;11.90;99.90
25983;DHT22;13773;48.868;10.730;2024-02-15T10:18:23;11.90;99.90
25983;DHT22;13773;48.868;10.730;2024-02-15T10:20:58;12.00;99.90
25983;DHT22;13773;48.868;10.730;2024-02-15T10:23:24;12.20;99.90
25983;DHT22;13773;48.868;10.730;2024-02-15T10:25:49;12.20;99.90
25983;DHT22;13773;48.868;10.730;2024-02-15T10:28:21;12.20;99.90
25983;DHT22;13773;48.868;10.730;2024-02-15T10:30:49;12.30;99.90
25983;DHT22;13773;48.868;10.730;2024-02-15T10:33:29;12.40;99.90
25983;DHT22;13773;48.868;10.730;2024-02-15T10:36:10;12.50;99.90
25983;DHT22;13773;48.868;10.730;2024-02-15T10:38:39;12.70;99.90
25983;DHT22;13773;48.868;10.730;2024-02-15T10:41:06;12.80;99.90
25983;DHT22;13773;48.868;10.730;2024-02-15T10:43:36;12.90;99.90
25983;DHT22;13773;48.868;10.730;2024-02-15T10:46:05;13.00;99.90
25983;DHT22;13773;48.868;10.730;2024-02-15T10:48:35;13.00;99.90
25983;DHT22;13773;48.868;10.730;2024-02-15T10:51:03;13.10;99.90
25983;DHT22;13773;48.868;10.730;2024-02-15T10:53:35;13.10;99.90
25983;DHT22;13773;48.868;10.730;2024-02-15T10:56:18;13.10;99.90
25983;DHT22;13773;48.868;10.730;2024-02-15T10:58:50;13.20;99.90
25983;DHT22;13773;48.868;10.730;2024-02-15T11:01:18;13.10;99.90
25983;DHT22;13773;48.868;10.730;2024-02-15T11:03:59;13.30;99.90
25983;DHT22;13773;48.868;10.730;2024-02-15T11:06:27;13.40;99.90
25983;DHT22;13773;48.868;10.730;2024-02-15T11:08:54;13.40;99.90
25983;DHT22;13773;48.868;10.730;2024-02-15T11:11:21;13.40;99.90
25983;DHT22;13773;48.868;10.730;2024-02-15T11:13:47;13.40;99.90
25983;DHT22;13773;48.868;10.730;2024-02-15T11:16:39;13.50;99.90
25983;DHT22;13773;48.868;10.730;2024-02-15T11:19:05;13.60;99.90
25983;DHT22;13773;48.868;10.730;2024-02-15T11:21:53;13.60;99.90
25983;DHT22;13773;48.868;10.730;2024-02-15T11:24:30;13.40;99.90
25983;DHT22;13773;48.868;10.730;2024-02-15T11:27:05;13.50;99.90
25983;DHT22;13773;48.868;10.730;2024-02-15T11:29:51;13.50;99.90
25983;DHT22;13773;48.868;10.730;2024-02-15T11:40:27;13.60;99.90
25983;DHT22;13773;48.868;10.730;2024-02-15T11:45:21;13.40;99.90
25983;DHT22;13773;48.868;10.730;2024-02-15T11:47:52;13.40;99.90
25983;DHT22;13773;48.868;10.730;2024-02-15T11:50:20;13.40;99.90
25983;DHT22;13773;48.868;10.730;2024-02-15T11:52:50;13.50;99.90
25983;DHT22;13773;48.868;10.730;2024-02-15T11:55:20;13.60;99.90
25983;DHT22;13773;48.868;10.730;2024-02-15T11:57:56;13.60;99.90
25983;DHT22;13773;48.868;10.730;2024-02-15T12:00:28;13.60;99.90
25983;DHT22;13773;48.868;10.730;2024-02-15T12:03:14;13.50;99.90
25983;DHT22;13773;48.868;10.730;2024-02-15T12:05:59;13.60;99.90
25983;DHT22;13773;48.868;10.730;2024-02-15T12:08:45;13.80;99.90
25983;DHT22;13773;48.868;10.730;2024-02-15T12:11:29;13.90;99.90
25983;DHT22;13773;48.868;10.730;2024-02-15T12:14:15;14.00;99.90
25983;DHT22;13773;48.868;10.730;2024-02-15T12:17:07;14.00;99.90
25983;DHT22;13773;48.868;10.730;2024-02-15T12:19:53;13.90;99.90
25983;DHT22;13773;48.868;10.730;2024-02-15T12:22:31;14.00;99.90
25983;DHT22;13773;48.868;10.730;2024-02-15T12:24:59;14.10;99.90
25983;DHT22;13773;48.868;10.730;2024-02-15T12:27:26;14.20;99.90
25983;DHT22;13773;48.868;10.730;2024-02-15T12:30:01;14.20;99.90
25983;DHT22;13773;48.868;10.730;2024-02-15T12:32:31;14.50;99.90
25983;DHT22;13773;48.868;10.730;2024-02-15T12:35:14;14.70;99.90
25983;DHT22;13773;48.868;10.730;2024-02-15T12:37:45;14.80;99.90
25983;DHT22;13773;48.868;10.730;2024-02-15T12:40:18;14.80;99.90
25983;DHT22;13773;48.868;10.730;2024-02-15T12:42:45;14.60;99.90
25983;DHT22;13773;48.868;10.730;2024-02-15T12:45:17;14.60;99.90
25983;DHT22;13773;48.868;10.730;2024-02-15T12:47:52;14.50;99.90
25983;DHT22;13773;48.868;10.730;2024-02-15T12:50:19;14.50;99.90
25983;DHT22;13773;48.868;10.730;2024-02-15T12:52:46;14.50;99.90
25983;DHT22;13773;48.868;10.730;2024-02-15T12:55:24;14.50;99.90
25983;DHT22;13773;48.868;10.730;2024-02-15T12:57:52;14.60;99.90
25983;DHT22;13773;48.868;10.730;2024-02-15T13:00:22;14.60;99.90
25983;DHT22;13773;48.868;10.730;2024-02-15T13:02:50;14.50;99.90
25983;DHT22;13773;48.868;10.730;2024-02-15T13:05:19;14.40;99.90
25983;DHT22;13773;48.868;10.730;2024-02-15T13:07:49;14.30;99.90
25983;DHT22;13773;48.868;10.730;2024-02-15T13:10:15;14.10;99.90
25983;DHT22;13773;48.868;10.730;2024-02-15T13:12:44;14.30;99.90
25983;DHT22;13773;48.868;10.730;2024-02-15T13:15:12;14.40;99.90
25983;DHT22;13773;48.868;10.730;2024-02-15T13:17:44;14.40;99.90
25983;DHT22;13773;48.868;10.730;2024-02-15T13:20:11;14.40;99.90
25983;DHT22;13773;48.868;10.730;2024-02-15T13:22:42;14.40;99.90
25983;DHT22;13773;48.868;10.730;2024-02-15T13:25:13;14.40;99.90
25983;DHT22;13773;48.868;10.730;2024-02-15T13:27:42;14.50;99.90
25983;DHT22;13773;48.868;10.730;2024-02-15T13:30:09;14.50;99.90
25983;DHT22;13773;48.868;10.730;2024-02-15T13:32:39;14.50;99.90
25983;DHT22;13773;48.868;10.730;2024-02-15T13:35:07;14.60;99.90
25983;DHT22;13773;48.868;10.730;2024-02-15T13:37:52;14.60;99.90
25983;DHT22;13773;48.868;10.730;2024-02-15T13:40:19;14.70;99.90
25983;DHT22;13773;48.868;10.730;2024-02-15T13:42:49;14.80;99.90
25983;DHT22;13773;48.868;10.730;2024-02-15T13:45:29;14.80;99.90
25983;DHT22;13773;48.868;10.730;2024-02-15T13:47:56;15.10;99.90
25983;DHT22;13773;48.868;10.730;2024-02-15T13:50:23;15.00;99.90
25983;DHT22;13773;48.868;10.730;2024-02-15T13:52:49;14.60;99.90
25983;DHT22;13773;48.868;10.730;2024-02-15T13:55:17;14.70;99.90
25983;DHT22;13773;48.868;10.730;2024-02-15T13:57:44;14.90;99.90
25983;DHT22;13773;48.868;10.730;2024-02-15T14:00:15;14.80;99.90
25983;DHT22;13773;48.868;10.730;2024-02-15T14:02:53;15.00;99.90
25983;DHT22;13773;48.868;10.730;2024-02-15T14:05:21;14.90;99.90
25983;DHT22;13773;48.868;10.730;2024-02-15T14:07:54;15.00;99.90
25983;DHT22;13773;48.868;10.730;2024-02-15T14:10:21;13.30;99.90
25983;DHT22;13773;48.868;10.730;2024-02-15T14:12:51;14.90;99.90
25983;DHT22;13773;48.868;10.730;2024-02-15T14:15:31;14.90;99.90
25983;DHT22;13773;48.868;10.730;2024-02-15T14:18:07;14.90;99.90
25983;DHT22;13773;48.868;10.730;2024-02-15T14:20:33;14.80;99.90
25983;DHT22;13773;48.868;10.730;2024-02-15T14:22:59;14.80;99.90
25983;DHT22;13773;48.868;10.730;2024-02-15T14:25:30;14.50;99.90
25983;DHT22;13773;48.868;10.730;2024-02-15T14:27:59;14.40;99.90
25983;DHT22;13773;48.868;10.730;2024-02-15T14:30:25;14.50;99.90
25983;DHT22;13773;48.868;10.730;2024-02-15T14:33:09;14.40;99.90
25983;DHT22;13773;48.868;10.730;2024-02-15T14:35:40;14.40;99.90
25983;DHT22;13773;48.868;10.730;2024-02-15T14:38:07;14.20;99.90
25983;DHT22;13773;48.868;10.730;2024-02-15T14:40:37;14.20;99.90
25983;DHT22;13773;48.868;10.730;2024-02-15T14:43:04;14.10;99.90
25983;DHT22;13773;48.868;10.730;2024-02-15T14:45:36;14.00;99.90
25983;DHT22;13773;48.868;10.730;2024-02-15T14:48:02;13.90;99.90
25983;DHT22;13773;48.868;10.730;2024-02-15T14:50:30;13.80;99.90
25983;DHT22;13773;48.868;10.730;2024-02-15T14:52:56;13.80;99.90
25983;DHT22;13773;48.868;10.730;2024-02-15T14:55:22;14.20;99.90
25983;DHT22;13773;48.868;10.730;2024-02-15T14:57:48;13.70;99.90
25983;DHT22;13773;48.868;10.730;2024-02-15T15:00:14;13.70;99.90
25983;DHT22;13773;48.868;10.730;2024-02-15T15:02:46;13.70;99.90
25983;DHT22;13773;48.868;10.730;2024-02-15T15:05:14;13.60;99.90
25983;DHT22;13773;48.868;10.730;2024-02-15T15:07:59;13.60;99.90
25983;DHT22;13773;48.868;10.730;2024-02-15T15:10:47;13.50;99.90
25983;DHT22;13773;48.868;10.730;2024-02-15T15:13:32;13.40;99.90
25983;DHT22;13773;48.868;10.730;2024-02-15T15:15:59;13.40;99.90
25983;DHT22;13773;48.868;10.730;2024-02-15T15:18:25;13.30;99.90
25983;DHT22;13773;48.868;10.730;2024-02-15T15:20:51;13.30;99.90
25983;DHT22;13773;48.868;10.730;2024-02-15T15:23:17;13.20;99.90
25983;DHT22;13773;48.868;10.730;2024-02-15T15:25:43;13.20;99.90
25983;DHT22;13773;48.868;10.730;2024-02-15T15:28:08;13.10;99.90
25983;DHT22;13773;48.868;10.730;2024-02-15T15:30:34;13.10;99.90
25983;DHT22;13773;48.868;10.730;2024-02-15T15:33:00;13.00;99.90
25983;DHT22;13773;48.868;10.730;2024-02-15T15:35:26;12.90;99.90
25983;DHT22;13773;48.868;10.730;2024-02-15T15:37:53;12.80;99.90
25983;DHT22;13773;48.868;10.730;2024-02-15T15:40:19;12.80;99.90
25983;DHT22;13773;48.868;10.730;2024-02-15T15:42:45;12.70;99.90
25983;DHT22;13773;48.868;10.730;2024-02-15T15:45:11;12.60;99.90